sensor_id;sensor_type;location;lat;lon;timestamp;P1;durP1;ratioP1;P2;durP2;ratioP2
55655;SDS011;41530;52.382;5.270;2023-04-29T00:03:08;4.35;;;3.00;;
55655;SDS011;41530;52.382;5.270;2023-04-29T00:08:39;5.50;;;3.15;;
55655;SDS011;41530;52.382;5.270;2023-04-29T00:11:20;6.13;;;3.85;;
55655;SDS011;41530;52.382;5.270;2023-04-29T00:13:52;6.65;;;3.97;;
55655;SDS011;41530;52.382;5.270;2023-04-29T00:16:38;6.90;;;3.90;;
55655;SDS011;41530;52.382;5.270;2023-04-29T00:23:26;5.30;;;3.70;;
55655;SDS011;41530;52.382;5.270;2023-04-29T00:29:17;7.97;;;3.30;;
55655;SDS011;41530;52.382;5.270;2023-04-29T00:35:37;6.47;;;3.78;;
55655;SDS011;41530;52.382;5.270;2023-04-29T00:43:26;6.13;;;2.80;;
55655;SDS011;41530;52.382;5.270;2023-04-29T00:46:44;6.32;;;2.97;;
55655;SDS011;41530;52.382;5.270;2023-04-29T00:49:31;4.72;;;2.80;;
55655;SDS011;41530;52.382;5.270;2023-04-29T00:52:35;6.88;;;3.33;;
55655;SDS011;41530;52.382;5.270;2023-04-29T00:56:07;4.70;;;2.75;;
55655;SDS011;41530;52.382;5.270;2023-04-29T00:58:50;6.75;;;3.33;;
55655;SDS011;41530;52.382;5.270;2023-04-29T01:02:15;4.85;;;3.03;;
55655;SDS011;41530;52.382;5.270;2023-04-29T01:05:46;5.80;;;3.35;;
55655;SDS011;41530;52.382;5.270;2023-04-29T01:15:22;4.82;;;2.80;;
55655;SDS011;41530;52.382;5.270;2023-04-29T01:18:40;3.75;;;2.42;;
55655;SDS011;41530;52.382;5.270;2023-04-29T01:21:46;4.32;;;2.65;;
55655;SDS011;41530;52.382;5.270;2023-04-29T01:24:39;5.18;;;2.83;;
55655;SDS011;41530;52.382;5.270;2023-04-29T01:27:38;6.35;;;2.72;;
55655;SDS011;41530;52.382;5.270;2023-04-29T01:43:07;3.83;;;2.50;;
55655;SDS011;41530;52.382;5.270;2023-04-29T01:46:15;7.15;;;2.50;;
55655;SDS011;41530;52.382;5.270;2023-04-29T01:52:43;5.05;;;2.30;;
55655;SDS011;41530;52.382;5.270;2023-04-29T01:56:00;4.43;;;2.50;;
55655;SDS011;41530;52.382;5.270;2023-04-29T01:59:13;5.63;;;2.88;;
55655;SDS011;41530;52.382;5.270;2023-04-29T02:02:42;5.03;;;2.97;;
55655;SDS011;41530;52.382;5.270;2023-04-29T02:06:13;7.05;;;3.03;;
55655;SDS011;41530;52.382;5.270;2023-04-29T02:09:38;6.75;;;2.80;;
55655;SDS011;41530;52.382;5.270;2023-04-29T02:16:18;5.20;;;2.63;;
55655;SDS011;41530;52.382;5.270;2023-04-29T02:19:25;5.07;;;2.70;;
55655;SDS011;41530;52.382;5.270;2023-04-29T02:22:54;5.82;;;2.85;;
55655;SDS011;41530;52.382;5.270;2023-04-29T02:25:43;6.32;;;2.95;;
55655;SDS011;41530;52.382;5.270;2023-04-29T02:31:59;3.65;;;2.42;;
55655;SDS011;41530;52.382;5.270;2023-04-29T02:35:12;4.43;;;2.65;;
55655;SDS011;41530;52.382;5.270;2023-04-29T02:38:30;5.25;;;2.30;;
55655;SDS011;41530;52.382;5.270;2023-04-29T02:42:04;5.40;;;2.60;;
55655;SDS011;41530;52.382;5.270;2023-04-29T02:59:22;5.68;;;3.08;;
55655;SDS011;41530;52.382;5.270;2023-04-29T03:05:17;4.82;;;3.05;;
55655;SDS011;41530;52.382;5.270;2023-04-29T03:09:14;3.75;;;2.40;;
55655;SDS011;41530;52.382;5.270;2023-04-29T03:18:52;3.78;;;2.28;;
55655;SDS011;41530;52.382;5.270;2023-04-29T03:25:21;4.88;;;2.35;;
55655;SDS011;41530;52.382;5.270;2023-04-29T03:31:02;5.03;;;2.28;;
55655;SDS011;41530;52.382;5.270;2023-04-29T03:34:15;3.08;;;2.40;;
55655;SDS011;41530;52.382;5.270;2023-04-29T03:53:53;2.70;;;1.85;;
55655;SDS011;41530;52.382;5.270;2023-04-29T04:00:29;2.05;;;1.55;;
55655;SDS011;41530;52.382;5.270;2023-04-29T04:03:52;3.65;;;1.60;;
55655;SDS011;41530;52.382;5.270;2023-04-29T04:13:50;4.60;;;1.77;;
55655;SDS011;41530;52.382;5.270;2023-04-29T04:16:35;2.28;;;1.83;;
55655;SDS011;41530;52.382;5.270;2023-04-29T04:19:42;3.17;;;1.90;;
55655;SDS011;41530;52.382;5.270;2023-04-29T04:23:30;3.22;;;1.80;;
55655;SDS011;41530;52.382;5.270;2023-04-29T04:27:02;2.40;;;1.90;;
55655;SDS011;41530;52.382;5.270;2023-04-29T04:29:46;5.22;;;2.22;;
55655;SDS011;41530;52.382;5.270;2023-04-29T04:32:43;5.13;;;2.40;;
55655;SDS011;41530;52.382;5.270;2023-04-29T04:35:10;2.78;;;2.40;;
55655;SDS011;41530;52.382;5.270;2023-04-29T04:37:37;4.82;;;2.42;;
55655;SDS011;41530;52.382;5.270;2023-04-29T04:40:04;2.97;;;2.45;;
55655;SDS011;41530;52.382;5.270;2023-04-29T04:42:31;4.35;;;2.60;;
55655;SDS011;41530;52.382;5.270;2023-04-29T04:44:58;4.07;;;2.75;;
55655;SDS011;41530;52.382;5.270;2023-04-29T04:47:24;4.93;;;2.38;;
55655;SDS011;41530;52.382;5.270;2023-04-29T04:49:51;5.85;;;2.65;;
55655;SDS011;41530;52.382;5.270;2023-04-29T04:52:19;6.43;;;3.13;;
55655;SDS011;41530;52.382;5.270;2023-04-29T04:54:46;5.07;;;2.95;;
55655;SDS011;41530;52.382;5.270;2023-04-29T04:57:13;4.22;;;3.30;;
55655;SDS011;41530;52.382;5.270;2023-04-29T04:59:40;6.43;;;3.22;;
55655;SDS011;41530;52.382;5.270;2023-04-29T05:02:06;4.68;;;2.90;;
55655;SDS011;41530;52.382;5.270;2023-04-29T05:04:33;7.82;;;3.35;;
55655;SDS011;41530;52.382;5.270;2023-04-29T05:07:00;3.78;;;2.70;;
55655;SDS011;41530;52.382;5.270;2023-04-29T05:09:27;7.05;;;3.17;;
55655;SDS011;41530;52.382;5.270;2023-04-29T05:18:02;3.67;;;2.10;;
55655;SDS011;41530;52.382;5.270;2023-04-29T05:27:17;2.55;;;1.45;;
55655;SDS011;41530;52.382;5.270;2023-04-29T05:30:35;3.20;;;1.60;;
55655;SDS011;41530;52.382;5.270;2023-04-29T05:33:42;3.40;;;1.50;;
55655;SDS011;41530;52.382;5.270;2023-04-29T05:36:35;2.80;;;1.40;;
55655;SDS011;41530;52.382;5.270;2023-04-29T05:39:37;2.38;;;1.45;;
55655;SDS011;41530;52.382;5.270;2023-04-29T05:43:35;2.70;;;1.40;;
55655;SDS011;41530;52.382;5.270;2023-04-29T05:46:23;2.33;;;1.35;;
55655;SDS011;41530;52.382;5.270;2023-04-29T06:02:43;3.38;;;1.30;;
55655;SDS011;41530;52.382;5.270;2023-04-29T06:12:01;2.75;;;1.35;;
55655;SDS011;41530;52.382;5.270;2023-04-29T06:18:47;1.40;;;1.10;;
55655;SDS011;41530;52.382;5.270;2023-04-29T06:22:05;1.55;;;0.80;;
55655;SDS011;41530;52.382;5.270;2023-04-29T06:24:47;1.67;;;1.00;;
55655;SDS011;41530;52.382;5.270;2023-04-29T06:27:44;1.23;;;1.10;;
55655;SDS011;41530;52.382;5.270;2023-04-29T06:30:53;2.08;;;1.20;;
55655;SDS011;41530;52.382;5.270;2023-04-29T06:36:37;2.78;;;1.17;;
55655;SDS011;41530;52.382;5.270;2023-04-29T06:39:23;1.40;;;1.00;;
55655;SDS011;41530;52.382;5.270;2023-04-29T06:46:02;1.90;;;1.17;;
55655;SDS011;41530;52.382;5.270;2023-04-29T06:48:55;2.63;;;1.00;;
55655;SDS011;41530;52.382;5.270;2023-04-29T06:55:02;1.70;;;1.13;;
55655;SDS011;41530;52.382;5.270;2023-04-29T06:58:04;3.30;;;1.35;;
55655;SDS011;41530;52.382;5.270;2023-04-29T07:03:48;5.50;;;2.83;;
55655;SDS011;41530;52.382;5.270;2023-04-29T07:07:15;4.95;;;2.17;;
55655;SDS011;41530;52.382;5.270;2023-04-29T07:13:51;7.05;;;2.05;;
55655;SDS011;41530;52.382;5.270;2023-04-29T07:17:01;5.03;;;2.40;;
55655;SDS011;41530;52.382;5.270;2023-04-29T07:19:42;6.70;;;2.65;;
55655;SDS011;41530;52.382;5.270;2023-04-29T07:22:22;5.13;;;2.60;;
55655;SDS011;41530;52.382;5.270;2023-04-29T07:25:19;6.35;;;2.90;;
55655;SDS011;41530;52.382;5.270;2023-04-29T07:28:11;8.95;;;3.13;;
55655;SDS011;41530;52.382;5.270;2023-04-29T07:31:24;3.90;;;2.20;;
55655;SDS011;41530;52.382;5.270;2023-04-29T07:37:45;2.20;;;1.85;;
55655;SDS011;41530;52.382;5.270;2023-04-29T07:40:12;5.85;;;2.05;;
55655;SDS011;41530;52.382;5.270;2023-04-29T07:42:38;4.60;;;2.05;;
55655;SDS011;41530;52.382;5.270;2023-04-29T07:45:05;4.65;;;1.58;;
55655;SDS011;41530;52.382;5.270;2023-04-29T07:47:32;3.50;;;1.55;;
55655;SDS011;41530;52.382;5.270;2023-04-29T07:49:59;3.08;;;1.60;;
55655;SDS011;41530;52.382;5.270;2023-04-29T07:52:26;4.05;;;1.73;;
55655;SDS011;41530;52.382;5.270;2023-04-29T07:54:52;5.38;;;1.92;;
55655;SDS011;41530;52.382;5.270;2023-04-29T07:57:21;4.03;;;1.80;;
55655;SDS011;41530;52.382;5.270;2023-04-29T07:59:51;8.75;;;2.30;;
55655;SDS011;41530;52.382;5.270;2023-04-29T08:02:19;10.05;;;1.90;;
55655;SDS011;41530;52.382;5.270;2023-04-29T08:04:47;4.10;;;1.88;;
55655;SDS011;41530;52.382;5.270;2023-04-29T08:07:14;6.15;;;1.60;;
55655;SDS011;41530;52.382;5.270;2023-04-29T08:09:40;3.80;;;1.98;;
55655;SDS011;41530;52.382;5.270;2023-04-29T08:12:07;4.97;;;1.70;;
55655;SDS011;41530;52.382;5.270;2023-04-29T08:14:34;4.13;;;1.67;;
55655;SDS011;41530;52.382;5.270;2023-04-29T08:17:01;4.38;;;1.17;;
55655;SDS011;41530;52.382;5.270;2023-04-29T08:19:27;4.20;;;1.45;;
55655;SDS011;41530;52.382;5.270;2023-04-29T08:21:54;1.20;;;1.08;;
55655;SDS011;41530;52.382;5.270;2023-04-29T08:24:21;2.53;;;1.30;;
55655;SDS011;41530;52.382;5.270;2023-04-29T08:26:48;3.03;;;1.58;;
55655;SDS011;41530;52.382;5.270;2023-04-29T08:29:14;4.57;;;1.92;;
55655;SDS011;41530;52.382;5.270;2023-04-29T08:31:41;2.30;;;1.75;;
55655;SDS011;41530;52.382;5.270;2023-04-29T08:34:08;3.92;;;2.03;;
55655;SDS011;41530;52.382;5.270;2023-04-29T08:36:34;4.35;;;2.10;;
55655;SDS011;41530;52.382;5.270;2023-04-29T08:39:03;3.60;;;1.75;;
55655;SDS011;41530;52.382;5.270;2023-04-29T08:41:30;5.47;;;2.22;;
55655;SDS011;41530;52.382;5.270;2023-04-29T08:43:58;4.65;;;2.13;;
55655;SDS011;41530;52.382;5.270;2023-04-29T08:46:26;6.45;;;1.90;;
55655;SDS011;41530;52.382;5.270;2023-04-29T08:48:53;2.75;;;1.63;;
55655;SDS011;41530;52.382;5.270;2023-04-29T08:51:23;4.72;;;2.00;;
55655;SDS011;41530;52.382;5.270;2023-04-29T08:53:49;6.65;;;2.13;;
55655;SDS011;41530;52.382;5.270;2023-04-29T08:56:16;4.80;;;1.83;;
55655;SDS011;41530;52.382;5.270;2023-04-29T08:58:45;3.28;;;2.20;;
55655;SDS011;41530;52.382;5.270;2023-04-29T09:01:20;3.70;;;1.80;;
55655;SDS011;41530;52.382;5.270;2023-04-29T09:03:49;2.60;;;1.75;;
55655;SDS011;41530;52.382;5.270;2023-04-29T09:06:18;3.60;;;2.35;;
55655;SDS011;41530;52.382;5.270;2023-04-29T09:08:46;2.55;;;1.52;;
55655;SDS011;41530;52.382;5.270;2023-04-29T09:11:13;3.28;;;1.40;;
55655;SDS011;41530;52.382;5.270;2023-04-29T09:13:40;3.70;;;1.67;;
55655;SDS011;41530;52.382;5.270;2023-04-29T09:16:13;4.13;;;1.33;;
55655;SDS011;41530;52.382;5.270;2023-04-29T09:18:40;1.88;;;1.10;;
55655;SDS011;41530;52.382;5.270;2023-04-29T09:23:52;2.65;;;1.15;;
55655;SDS011;41530;52.382;5.270;2023-04-29T09:26:20;3.05;;;1.60;;
55655;SDS011;41530;52.382;5.270;2023-04-29T09:29:04;3.10;;;1.20;;
55655;SDS011;41530;52.382;5.270;2023-04-29T09:31:36;1.38;;;1.08;;
55655;SDS011;41530;52.382;5.270;2023-04-29T09:34:04;2.90;;;1.63;;
55655;SDS011;41530;52.382;5.270;2023-04-29T09:39:14;2.95;;;1.20;;
55655;SDS011;41530;52.382;5.270;2023-04-29T09:41:55;1.35;;;1.17;;
55655;SDS011;41530;52.382;5.270;2023-04-29T09:44:28;1.80;;;1.25;;
55655;SDS011;41530;52.382;5.270;2023-04-29T09:47:06;2.40;;;1.15;;
55655;SDS011;41530;52.382;5.270;2023-04-29T09:49:39;1.90;;;1.00;;
55655;SDS011;41530;52.382;5.270;2023-04-29T09:52:07;2.22;;;1.42;;
55655;SDS011;41530;52.382;5.270;2023-04-29T09:54:39;1.77;;;1.13;;
55655;SDS011;41530;52.382;5.270;2023-04-29T09:57:07;4.45;;;1.20;;
55655;SDS011;41530;52.382;5.270;2023-04-29T09:59:36;1.75;;;1.15;;
55655;SDS011;41530;52.382;5.270;2023-04-29T10:02:14;5.28;;;1.20;;
55655;SDS011;41530;52.382;5.270;2023-04-29T10:04:46;2.67;;;1.20;;
55655;SDS011;41530;52.382;5.270;2023-04-29T10:07:19;3.65;;;1.30;;
55655;SDS011;41530;52.382;5.270;2023-04-29T10:09:47;3.72;;;1.67;;
55655;SDS011;41530;52.382;5.270;2023-04-29T10:12:18;3.63;;;1.80;;
55655;SDS011;41530;52.382;5.270;2023-04-29T10:15:09;4.05;;;1.70;;
55655;SDS011;41530;52.382;5.270;2023-04-29T10:17:45;4.53;;;1.92;;
55655;SDS011;41530;52.382;5.270;2023-04-29T10:20:18;2.92;;;1.23;;
55655;SDS011;41530;52.382;5.270;2023-04-29T10:22:48;2.42;;;1.50;;
55655;SDS011;41530;52.382;5.270;2023-04-29T10:25:17;2.83;;;1.75;;
55655;SDS011;41530;52.382;5.270;2023-04-29T10:27:45;4.18;;;1.80;;
55655;SDS011;41530;52.382;5.270;2023-04-29T10:30:13;3.25;;;1.90;;
55655;SDS011;41530;52.382;5.270;2023-04-29T10:32:41;4.18;;;2.05;;
55655;SDS011;41530;52.382;5.270;2023-04-29T10:35:17;3.20;;;1.98;;
55655;SDS011;41530;52.382;5.270;2023-04-29T10:37:46;6.15;;;1.60;;
55655;SDS011;41530;52.382;5.270;2023-04-29T10:43:00;1.52;;;1.00;;
55655;SDS011;41530;52.382;5.270;2023-04-29T10:45:28;2.25;;;1.10;;
55655;SDS011;41530;52.382;5.270;2023-04-29T10:50:28;1.50;;;1.00;;
55655;SDS011;41530;52.382;5.270;2023-04-29T10:52:55;2.40;;;0.80;;
55655;SDS011;41530;52.382;5.270;2023-04-29T10:55:24;2.42;;;1.17;;
55655;SDS011;41530;52.382;5.270;2023-04-29T10:57:54;2.10;;;1.10;;
55655;SDS011;41530;52.382;5.270;2023-04-29T11:00:30;2.55;;;1.05;;
55655;SDS011;41530;52.382;5.270;2023-04-29T11:02:59;3.65;;;1.08;;
55655;SDS011;41530;52.382;5.270;2023-04-29T11:08:10;1.70;;;1.20;;
55655;SDS011;41530;52.382;5.270;2023-04-29T11:10:51;1.13;;;0.90;;
55655;SDS011;41530;52.382;5.270;2023-04-29T11:13:25;2.85;;;1.00;;
55655;SDS011;41530;52.382;5.270;2023-04-29T11:16:03;3.33;;;1.00;;
55655;SDS011;41530;52.382;5.270;2023-04-29T11:18:31;3.55;;;1.00;;
55655;SDS011;41530;52.382;5.270;2023-04-29T11:23:35;3.50;;;1.08;;
55655;SDS011;41530;52.382;5.270;2023-04-29T11:26:03;1.60;;;1.10;;
55655;SDS011;41530;52.382;5.270;2023-04-29T11:28:30;2.35;;;1.08;;
55655;SDS011;41530;52.382;5.270;2023-04-29T11:30:57;1.63;;;0.98;;
55655;SDS011;41530;52.382;5.270;2023-04-29T11:33:25;3.78;;;1.13;;
55655;SDS011;41530;52.382;5.270;2023-04-29T11:35:53;1.70;;;1.10;;
55655;SDS011;41530;52.382;5.270;2023-04-29T11:38:25;1.10;;;1.00;;
55655;SDS011;41530;52.382;5.270;2023-04-29T11:40:53;3.17;;;0.95;;
55655;SDS011;41530;52.382;5.270;2023-04-29T11:43:21;1.55;;;0.90;;
55655;SDS011;41530;52.382;5.270;2023-04-29T11:45:50;3.63;;;0.95;;
55655;SDS011;41530;52.382;5.270;2023-04-29T11:48:18;1.58;;;0.85;;
55655;SDS011;41530;52.382;5.270;2023-04-29T11:50:45;2.38;;;1.45;;
55655;SDS011;41530;52.382;5.270;2023-04-29T11:53:14;1.52;;;0.90;;
55655;SDS011;41530;52.382;5.270;2023-04-29T11:55:41;1.58;;;1.00;;
55655;SDS011;41530;52.382;5.270;2023-04-29T11:58:08;1.23;;;0.90;;
55655;SDS011;41530;52.382;5.270;2023-04-29T12:00:36;1.58;;;0.88;;
55655;SDS011;41530;52.382;5.270;2023-04-29T12:03:12;1.23;;;1.13;;
55655;SDS011;41530;52.382;5.270;2023-04-29T12:05:47;1.67;;;0.82;;
55655;SDS011;41530;52.382;5.270;2023-04-29T12:08:18;2.13;;;0.95;;
55655;SDS011;41530;52.382;5.270;2023-04-29T12:10:55;3.83;;;1.10;;
55655;SDS011;41530;52.382;5.270;2023-04-29T12:13:27;2.33;;;1.10;;
55655;SDS011;41530;52.382;5.270;2023-04-29T12:15:55;1.85;;;1.02;;
55655;SDS011;41530;52.382;5.270;2023-04-29T12:18:23;1.73;;;0.85;;
55655;SDS011;41530;52.382;5.270;2023-04-29T12:20:52;1.80;;;0.90;;
55655;SDS011;41530;52.382;5.270;2023-04-29T12:23:23;4.10;;;1.05;;
55655;SDS011;41530;52.382;5.270;2023-04-29T12:25:58;2.47;;;1.10;;
55655;SDS011;41530;52.382;5.270;2023-04-29T12:28:25;2.22;;;1.38;;
55655;SDS011;41530;52.382;5.270;2023-04-29T12:30:52;2.45;;;1.55;;
55655;SDS011;41530;52.382;5.270;2023-04-29T12:33:24;2.53;;;1.20;;
55655;SDS011;41530;52.382;5.270;2023-04-29T12:35:55;1.73;;;1.50;;
55655;SDS011;41530;52.382;5.270;2023-04-29T12:38:23;4.15;;;1.85;;
55655;SDS011;41530;52.382;5.270;2023-04-29T12:40:55;1.65;;;1.35;;
55655;SDS011;41530;52.382;5.270;2023-04-29T12:43:25;2.08;;;1.08;;
55655;SDS011;41530;52.382;5.270;2023-04-29T12:46:03;2.17;;;1.98;;
55655;SDS011;41530;52.382;5.270;2023-04-29T12:48:31;1.92;;;1.38;;
55655;SDS011;41530;52.382;5.270;2023-04-29T12:50:59;1.58;;;0.90;;
55655;SDS011;41530;52.382;5.270;2023-04-29T12:53:30;4.93;;;1.27;;
55655;SDS011;41530;52.382;5.270;2023-04-29T12:55:57;1.58;;;1.20;;
55655;SDS011;41530;52.382;5.270;2023-04-29T12:58:27;2.03;;;1.33;;
55655;SDS011;41530;52.382;5.270;2023-04-29T13:00:55;1.48;;;1.17;;
55655;SDS011;41530;52.382;5.270;2023-04-29T13:03:22;2.88;;;1.65;;
55655;SDS011;41530;52.382;5.270;2023-04-29T13:05:50;2.70;;;1.20;;
55655;SDS011;41530;52.382;5.270;2023-04-29T13:08:19;3.33;;;1.38;;
55655;SDS011;41530;52.382;5.270;2023-04-29T13:10:45;3.42;;;1.20;;
55655;SDS011;41530;52.382;5.270;2023-04-29T13:13:12;2.50;;;1.20;;
55655;SDS011;41530;52.382;5.270;2023-04-29T13:15:38;3.85;;;1.30;;
55655;SDS011;41530;52.382;5.270;2023-04-29T13:18:05;2.47;;;1.33;;
55655;SDS011;41530;52.382;5.270;2023-04-29T13:20:32;1.55;;;1.10;;
55655;SDS011;41530;52.382;5.270;2023-04-29T13:23:06;1.67;;;1.38;;
55655;SDS011;41530;52.382;5.270;2023-04-29T13:25:33;2.55;;;1.15;;
55655;SDS011;41530;52.382;5.270;2023-04-29T13:28:00;1.33;;;1.00;;
55655;SDS011;41530;52.382;5.270;2023-04-29T13:30:27;1.90;;;1.20;;
55655;SDS011;41530;52.382;5.270;2023-04-29T13:32:53;2.08;;;1.15;;
55655;SDS011;41530;52.382;5.270;2023-04-29T13:35:29;1.77;;;1.13;;
55655;SDS011;41530;52.382;5.270;2023-04-29T13:37:56;2.28;;;1.00;;
55655;SDS011;41530;52.382;5.270;2023-04-29T13:40:23;1.27;;;1.08;;
55655;SDS011;41530;52.382;5.270;2023-04-29T13:42:53;2.85;;;1.10;;
55655;SDS011;41530;52.382;5.270;2023-04-29T13:45:31;1.83;;;1.20;;
55655;SDS011;41530;52.382;5.270;2023-04-29T13:48:04;1.10;;;0.90;;
55655;SDS011;41530;52.382;5.270;2023-04-29T13:50:50;1.85;;;1.02;;
55655;SDS011;41530;52.382;5.270;2023-04-29T13:53:20;2.72;;;1.25;;
55655;SDS011;41530;52.382;5.270;2023-04-29T13:56:07;1.63;;;1.05;;
55655;SDS011;41530;52.382;5.270;2023-04-29T13:58:36;1.45;;;0.85;;
55655;SDS011;41530;52.382;5.270;2023-04-29T14:01:23;1.30;;;1.00;;
55655;SDS011;41530;52.382;5.270;2023-04-29T14:04:09;1.15;;;0.90;;
55655;SDS011;41530;52.382;5.270;2023-04-29T14:06:38;3.20;;;1.00;;
55655;SDS011;41530;52.382;5.270;2023-04-29T14:09:31;1.42;;;1.00;;
55655;SDS011;41530;52.382;5.270;2023-04-29T14:12:48;3.97;;;1.08;;
55655;SDS011;41530;52.382;5.270;2023-04-29T14:15:35;4.60;;;1.00;;
55655;SDS011;41530;52.382;5.270;2023-04-29T14:18:40;2.00;;;1.05;;
55655;SDS011;41530;52.382;5.270;2023-04-29T14:21:30;1.73;;;1.10;;
55655;SDS011;41530;52.382;5.270;2023-04-29T14:24:35;1.55;;;0.98;;
55655;SDS011;41530;52.382;5.270;2023-04-29T14:27:27;1.25;;;1.00;;
55655;SDS011;41530;52.382;5.270;2023-04-29T14:30:09;2.40;;;1.02;;
55655;SDS011;41530;52.382;5.270;2023-04-29T14:33:14;1.17;;;0.80;;
55655;SDS011;41530;52.382;5.270;2023-04-29T14:36:12;1.88;;;0.80;;
55655;SDS011;41530;52.382;5.270;2023-04-29T14:42:43;2.45;;;1.30;;
55655;SDS011;41530;52.382;5.270;2023-04-29T14:45:45;2.05;;;0.93;;
55655;SDS011;41530;52.382;5.270;2023-04-29T14:55:45;1.48;;;0.82;;
55655;SDS011;41530;52.382;5.270;2023-04-29T14:58:23;1.33;;;0.70;;
55655;SDS011;41530;52.382;5.270;2023-04-29T15:01:37;2.97;;;1.10;;
55655;SDS011;41530;52.382;5.270;2023-04-29T15:04:22;1.23;;;0.75;;
55655;SDS011;41530;52.382;5.270;2023-04-29T15:12:56;1.25;;;0.77;;
55655;SDS011;41530;52.382;5.270;2023-04-29T15:15:54;0.98;;;0.65;;
55655;SDS011;41530;52.382;5.270;2023-04-29T15:19:01;3.75;;;0.75;;
55655;SDS011;41530;52.382;5.270;2023-04-29T15:21:47;1.80;;;0.70;;
55655;SDS011;41530;52.382;5.270;2023-04-29T15:37:16;1.38;;;0.82;;
55655;SDS011;41530;52.382;5.270;2023-04-29T15:40:17;4.03;;;0.80;;
55655;SDS011;41530;52.382;5.270;2023-04-29T15:43:10;1.13;;;0.60;;
55655;SDS011;41530;52.382;5.270;2023-04-29T15:46:30;5.00;;;0.90;;
55655;SDS011;41530;52.382;5.270;2023-04-29T15:49:07;0.77;;;0.70;;
55655;SDS011;41530;52.382;5.270;2023-04-29T15:52:10;1.92;;;0.63;;
55655;SDS011;41530;52.382;5.270;2023-04-29T16:02:43;1.27;;;0.82;;
55655;SDS011;41530;52.382;5.270;2023-04-29T16:08:56;6.47;;;1.10;;
55655;SDS011;41530;52.382;5.270;2023-04-29T16:14:55;7.28;;;1.13;;
55655;SDS011;41530;52.382;5.270;2023-04-29T16:18:28;2.80;;;0.90;;
55655;SDS011;41530;52.382;5.270;2023-04-29T16:21:32;3.60;;;1.00;;
55655;SDS011;41530;52.382;5.270;2023-04-29T16:24:30;2.45;;;1.00;;
55655;SDS011;41530;52.382;5.270;2023-04-29T16:30:51;1.48;;;0.90;;
55655;SDS011;41530;52.382;5.270;2023-04-29T16:33:56;3.35;;;0.88;;
55655;SDS011;41530;52.382;5.270;2023-04-29T16:36:48;2.83;;;1.08;;
55655;SDS011;41530;52.382;5.270;2023-04-29T16:40:19;2.58;;;0.95;;
55655;SDS011;41530;52.382;5.270;2023-04-29T16:42:57;2.20;;;0.73;;
55655;SDS011;41530;52.382;5.270;2023-04-29T16:45:43;5.68;;;1.17;;
55655;SDS011;41530;52.382;5.270;2023-04-29T16:51:58;0.95;;;0.70;;
55655;SDS011;41530;52.382;5.270;2023-04-29T16:55:11;0.90;;;0.77;;
55655;SDS011;41530;52.382;5.270;2023-04-29T16:59:14;1.95;;;0.85;;
55655;SDS011;41530;52.382;5.270;2023-04-29T17:12:17;1.35;;;0.85;;
55655;SDS011;41530;52.382;5.270;2023-04-29T17:14:58;4.35;;;1.00;;
55655;SDS011;41530;52.382;5.270;2023-04-29T17:18:01;4.38;;;0.73;;
55655;SDS011;41530;52.382;5.270;2023-04-29T17:21:54;2.83;;;0.90;;
55655;SDS011;41530;52.382;5.270;2023-04-29T17:25:04;2.88;;;1.05;;
55655;SDS011;41530;52.382;5.270;2023-04-29T17:38:37;1.88;;;0.70;;
55655;SDS011;41530;52.382;5.270;2023-04-29T17:42:05;3.05;;;0.73;;
55655;SDS011;41530;52.382;5.270;2023-04-29T17:48:09;1.10;;;0.50;;
55655;SDS011;41530;52.382;5.270;2023-04-29T17:51:42;2.47;;;0.70;;
55655;SDS011;41530;52.382;5.270;2023-04-29T17:54:41;1.20;;;0.57;;
55655;SDS011;41530;52.382;5.270;2023-04-29T17:57:40;2.63;;;0.60;;
55655;SDS011;41530;52.382;5.270;2023-04-29T18:10:47;0.82;;;0.68;;
55655;SDS011;41530;52.382;5.270;2023-04-29T18:13:58;1.27;;;0.70;;
55655;SDS011;41530;52.382;5.270;2023-04-29T18:16:51;0.55;;;0.52;;
55655;SDS011;41530;52.382;5.270;2023-04-29T18:19:54;1.52;;;0.73;;
55655;SDS011;41530;52.382;5.270;2023-04-29T18:22:55;0.68;;;0.57;;
55655;SDS011;41530;52.382;5.270;2023-04-29T18:26:05;1.38;;;0.60;;
55655;SDS011;41530;52.382;5.270;2023-04-29T18:29:11;4.97;;;0.70;;
55655;SDS011;41530;52.382;5.270;2023-04-29T18:32:32;1.52;;;0.60;;
55655;SDS011;41530;52.382;5.270;2023-04-29T18:35:27;2.53;;;0.68;;
55655;SDS011;41530;52.382;5.270;2023-04-29T18:52:38;2.35;;;0.77;;
55655;SDS011;41530;52.382;5.270;2023-04-29T18:55:27;0.60;;;0.60;;
55655;SDS011;41530;52.382;5.270;2023-04-29T18:58:20;0.60;;;0.50;;
55655;SDS011;41530;52.382;5.270;2023-04-29T19:01:33;0.70;;;0.50;;
55655;SDS011;41530;52.382;5.270;2023-04-29T19:04:46;1.27;;;0.70;;
55655;SDS011;41530;52.382;5.270;2023-04-29T19:08:07;0.85;;;0.65;;
55655;SDS011;41530;52.382;5.270;2023-04-29T19:21:07;1.33;;;0.60;;
55655;SDS011;41530;52.382;5.270;2023-04-29T19:27:35;1.13;;;0.63;;
55655;SDS011;41530;52.382;5.270;2023-04-29T19:38:11;1.25;;;0.68;;
55655;SDS011;41530;52.382;5.270;2023-04-29T19:59:17;1.52;;;0.70;;
55655;SDS011;41530;52.382;5.270;2023-04-29T20:05:51;0.88;;;0.70;;
55655;SDS011;41530;52.382;5.270;2023-04-29T20:08:42;0.50;;;0.50;;
55655;SDS011;41530;52.382;5.270;2023-04-29T20:12:06;1.95;;;0.70;;
55655;SDS011;41530;52.382;5.270;2023-04-29T20:14:52;2.15;;;0.80;;
55655;SDS011;41530;52.382;5.270;2023-04-29T20:17:33;0.88;;;0.73;;
55655;SDS011;41530;52.382;5.270;2023-04-29T20:21:04;2.53;;;0.98;;
55655;SDS011;41530;52.382;5.270;2023-04-29T20:23:55;1.30;;;0.70;;
55655;SDS011;41530;52.382;5.270;2023-04-29T20:26:42;2.30;;;0.95;;
55655;SDS011;41530;52.382;5.270;2023-04-29T20:29:59;1.13;;;0.90;;
55655;SDS011;41530;52.382;5.270;2023-04-29T20:33:03;1.00;;;0.80;;
55655;SDS011;41530;52.382;5.270;2023-04-29T20:36:50;1.15;;;0.82;;
55655;SDS011;41530;52.382;5.270;2023-04-29T20:39:54;1.80;;;0.88;;
55655;SDS011;41530;52.382;5.270;2023-04-29T20:54:31;2.38;;;1.00;;
55655;SDS011;41530;52.382;5.270;2023-04-29T20:57:21;1.02;;;0.85;;
55655;SDS011;41530;52.382;5.270;2023-04-29T21:00:48;1.35;;;0.77;;
55655;SDS011;41530;52.382;5.270;2023-04-29T21:07:46;2.90;;;1.00;;
55655;SDS011;41530;52.382;5.270;2023-04-29T21:10:36;2.08;;;1.10;;
55655;SDS011;41530;52.382;5.270;2023-04-29T21:13:19;1.88;;;1.10;;
55655;SDS011;41530;52.382;5.270;2023-04-29T21:20:28;2.63;;;1.00;;
55655;SDS011;41530;52.382;5.270;2023-04-29T21:23:22;2.80;;;1.20;;
55655;SDS011;41530;52.382;5.270;2023-04-29T21:29:41;1.50;;;1.00;;
55655;SDS011;41530;52.382;5.270;2023-04-29T21:35:36;2.38;;;1.15;;
55655;SDS011;41530;52.382;5.270;2023-04-29T21:38:50;2.85;;;1.40;;
55655;SDS011;41530;52.382;5.270;2023-04-29T21:42:10;1.33;;;1.23;;
55655;SDS011;41530;52.382;5.270;2023-04-29T21:46:10;2.35;;;1.27;;
55655;SDS011;41530;52.382;5.270;2023-04-29T21:49:23;2.38;;;1.40;;
55655;SDS011;41530;52.382;5.270;2023-04-29T21:52:30;2.75;;;1.52;;
55655;SDS011;41530;52.382;5.270;2023-04-29T21:55:49;4.28;;;1.30;;
55655;SDS011;41530;52.382;5.270;2023-04-29T21:59:22;3.40;;;1.40;;
55655;SDS011;41530;52.382;5.270;2023-04-29T22:02:29;3.33;;;1.45;;
55655;SDS011;41530;52.382;5.270;2023-04-29T22:09:55;3.35;;;1.60;;
55655;SDS011;41530;52.382;5.270;2023-04-29T22:17:02;3.03;;;1.30;;
55655;SDS011;41530;52.382;5.270;2023-04-29T22:20:29;1.75;;;1.10;;
55655;SDS011;41530;52.382;5.270;2023-04-29T22:23:49;2.80;;;1.55;;
55655;SDS011;41530;52.382;5.270;2023-04-29T22:32:42;2.35;;;1.27;;
55655;SDS011;41530;52.382;5.270;2023-04-29T22:36:11;3.40;;;1.27;;
55655;SDS011;41530;52.382;5.270;2023-04-29T22:49:11;5.35;;;1.30;;
55655;SDS011;41530;52.382;5.270;2023-04-29T22:59:05;1.48;;;1.33;;
55655;SDS011;41530;52.382;5.270;2023-04-29T23:08:51;1.52;;;1.20;;
55655;SDS011;41530;52.382;5.270;2023-04-29T23:11:53;3.95;;;1.48;;
55655;SDS011;41530;52.382;5.270;2023-04-29T23:18:48;4.05;;;1.50;;
55655;SDS011;41530;52.382;5.270;2023-04-29T23:22:13;4.15;;;1.35;;